Tropical Cyclones
[Index]
Main Index Home Page Stock Weather Photos Extreme Storms Discussion Storm News and Storm Chasing Reports Tropical Cyclones / Hurricanes / Typhoons Weather Data and Links Wild Fires / Bushfires Weather Observation Techniques Weather Picture Catalogue Tornado Pictures and Reports Stock Video Footage and DVDs for sale
Season 1979-1980 Tropical Cyclone WILF-DANITZA Track Map
Season 1979-1980 Summaries: [BoM-AU] [JTWC-AU] [JTWC-SIO] [JTWC-SPAC] [JTWC-SH]
<<- Previous TC | JTWC 1979-1980 Season | Next TC ->>

click for intensity scale information  Lat/long Grid: Show Hide

 Date Labels: Show Hide

Joint Typhoon Warning Centre Cyclone Data

Name: WILF-DANITZA

24 Dec 1979 12:00 UTC to 02 Jan 1980 12:00 UTC

    date/time    lat    long     hPa   cat  kts
1979-12-24 12   13.0    93.0                  30          
1979-12-24 18   12.6    92.5                  30          
1979-12-25 00   12.2    91.8                  30          
1979-12-25 06   11.8    90.9                  30          
1979-12-25 12   11.5    90.0                  30          
1979-12-25 18   11.4    89.6                  30          
1979-12-26 00   11.4    89.3                  35          
1979-12-26 06   11.6    89.0                  35          
1979-12-26 12   12.0    89.0                  35          
1979-12-26 18   13.0    89.7                  35          
1979-12-27 00   13.8    90.6            1     40          
1979-12-27 06   14.1    90.9            1     40          
1979-12-27 12   14.3    91.3            1     45          
1979-12-27 18   14.5    91.7            1     45          
1979-12-28 00   14.7    92.2            1     45          
1979-12-28 06   15.3    92.6            1     50          
1979-12-28 12   16.0    93.1            2     55          
1979-12-28 18   16.5    93.0            2     55          
1979-12-29 00   16.8    92.2            2     55          
1979-12-29 06   16.6    91.2            1     50          
1979-12-29 12   16.3    90.4            1     45          
1979-12-29 18   16.5    89.9            1     40          
1979-12-30 00   16.7    89.5            1     40          
1979-12-30 06   16.5    89.1            1     40          
1979-12-30 12   16.3    88.5            1     40          
1979-12-30 18   16.4    87.6            1     40          
1979-12-31 00   16.5    86.5            1     40          
1979-12-31 06   16.3    85.6            1     45          
1979-12-31 12   16.2    84.6            1     45          
1979-12-31 18   16.1    83.3            1     40          
1980-01-01 00   16.1    82.0                  35          
1980-01-01 06   16.1    81.0                  35          
1980-01-01 12   16.1    79.9                  30          
1980-01-01 18   16.1    78.6                  30          
1980-01-02 00   16.0    77.2                  25          
1980-01-02 06   15.8    76.0                  25          
1980-01-02 12   15.5    75.0                  25          
Winds are 1-min average.

Tropical cyclone tracks developed by Michael Bath using data from the Joint Typhoon Warning Centre Best Tracks and Google Maps.


[Australian Severe Weather index] [Copyright Notice] [Email Contacts] [Search This Site] [Privacy Policy]
Document: tropical_cyclone_wilf-danitza.htm Updated: 18 September 2016